createdAt,value
2022-10-08T00:01:25.286Z,36.37
2022-10-08T00:04:27.725Z,36.51
2022-10-08T00:07:30.862Z,36.41
2022-10-08T00:10:33.156Z,36.39
2022-10-08T00:13:41.138Z,36.31
2022-10-08T00:16:43.481Z,36.39
2022-10-08T00:19:45.747Z,36.33
2022-10-08T00:22:49.446Z,36.40
2022-10-08T00:25:52.016Z,36.34
2022-10-08T00:28:56.729Z,36.63
2022-10-08T00:31:59.093Z,36.16
2022-10-08T00:35:01.307Z,36.49
2022-10-08T00:38:03.505Z,36.54
2022-10-08T00:41:07.801Z,36.70
2022-10-08T00:44:47.788Z,36.20
2022-10-08T00:47:50.119Z,36.37
2022-10-08T00:50:52.557Z,36.21
2022-10-08T00:53:55.063Z,36.37
2022-10-08T00:56:57.236Z,36.29
2022-10-08T01:00:01.986Z,36.23
2022-10-08T01:03:04.235Z,36.27
2022-10-08T01:06:16.764Z,36.20
2022-10-08T01:09:28.821Z,36.19
2022-10-08T01:12:50.184Z,36.09
2022-10-08T01:16:28.121Z,36.29
2022-10-08T01:19:44.423Z,36.09
2022-10-08T01:23:03.208Z,36.24
2022-10-08T01:26:22.854Z,36.33
2022-10-08T01:29:39.648Z,36.22
2022-10-08T01:32:48.838Z,35.98
2022-10-08T01:35:57.513Z,35.95
2022-10-08T01:39:03.891Z,35.92
2022-10-08T01:42:09.541Z,36.23
2022-10-08T01:45:16.375Z,36.04
2022-10-08T01:48:25.863Z,36.10
2022-10-08T01:51:36.866Z,36.17
2022-10-08T01:54:44.423Z,36.04
2022-10-08T01:57:47.923Z,36.15
2022-10-08T02:00:51.294Z,36.24
2022-10-08T02:04:12.566Z,35.98
2022-10-08T02:07:16.740Z,36.12
2022-10-08T02:10:23.202Z,36.13
2022-10-08T02:13:25.892Z,36.28
2022-10-08T02:16:29.957Z,36.29
2022-10-08T02:19:53.519Z,36.23
2022-10-08T02:23:01.866Z,36.04
2022-10-08T02:26:09.296Z,35.80
2022-10-08T02:29:16.165Z,35.99
2022-10-08T02:32:34.634Z,36.40
2022-10-08T02:35:44.012Z,35.97
2022-10-08T02:38:54.096Z,35.74
2022-10-08T02:42:01.967Z,36.21
2022-10-08T02:45:10.938Z,36.20
2022-10-08T02:48:20.642Z,35.99
2022-10-08T02:51:24.860Z,35.86
2022-10-08T02:54:30.793Z,36.09
2022-10-08T02:57:44.127Z,36.40
2022-10-08T03:01:03.667Z,36.05
2022-10-08T03:04:14.214Z,35.83
2022-10-08T03:07:16.789Z,36.10
2022-10-08T03:10:19.930Z,36.01
2022-10-08T03:13:23.501Z,35.75
2022-10-08T03:16:32.349Z,36.07
2022-10-08T03:19:35.145Z,36.00
2022-10-08T03:22:38.283Z,36.08
2022-10-08T03:25:40.422Z,35.75
2022-10-08T03:28:42.677Z,36.09
2022-10-08T03:31:47.054Z,35.76
2022-10-08T03:34:49.281Z,35.60
2022-10-08T03:37:52.758Z,35.64
2022-10-08T03:40:57.788Z,36.07
2022-10-08T03:44:00.752Z,35.78
2022-10-08T03:47:03.390Z,35.87
2022-10-08T03:50:06.421Z,35.73
2022-10-08T03:53:08.602Z,35.71
2022-10-08T03:56:13.754Z,35.74
2022-10-08T03:59:16.009Z,35.70
2022-10-08T04:02:18.265Z,35.95
2022-10-08T04:05:20.435Z,35.98
2022-10-08T04:08:22.756Z,35.95
2022-10-08T04:11:24.945Z,35.66
2022-10-08T04:14:27.176Z,35.76
2022-10-08T04:17:29.301Z,35.42
2022-10-08T04:20:32.639Z,35.85
2022-10-08T04:23:36.626Z,35.98
2022-10-08T04:26:38.797Z,35.77
2022-10-08T04:29:41.059Z,35.85
2022-10-08T04:32:43.359Z,35.72
2022-10-08T04:35:45.625Z,35.58
2022-10-08T04:38:48.469Z,35.84
2022-10-08T04:41:50.623Z,35.63
2022-10-08T04:44:52.972Z,35.65
2022-10-08T04:47:55.145Z,35.64
2022-10-08T04:51:04.080Z,35.73
2022-10-08T04:54:08.238Z,35.50
2022-10-08T04:57:10.451Z,35.48
2022-10-08T05:00:18.328Z,35.82
2022-10-08T05:03:21.110Z,35.60
2022-10-08T05:06:26.141Z,35.47
2022-10-08T05:09:28.305Z,35.52
2022-10-08T05:12:30.503Z,35.42
2022-10-08T05:15:34.897Z,35.56
2022-10-08T05:18:38.388Z,35.62
2022-10-08T05:21:40.589Z,35.57
2022-10-08T05:24:42.788Z,35.20
2022-10-08T05:27:44.954Z,35.37
2022-10-08T05:30:47.214Z,35.46
2022-10-08T05:33:49.818Z,35.45
2022-10-08T05:36:52.009Z,35.70
2022-10-08T05:39:54.184Z,35.60
2022-10-08T05:42:57.089Z,35.44
2022-10-08T05:45:59.304Z,35.44
2022-10-08T05:49:03.499Z,35.20
2022-10-08T05:52:05.681Z,35.27
2022-10-08T05:55:08.347Z,35.12
2022-10-08T05:58:10.533Z,35.39
2022-10-08T06:01:21.925Z,35.21
2022-10-08T06:04:24.246Z,35.11
2022-10-08T06:07:26.505Z,34.89
2022-10-08T06:10:30.029Z,34.67
2022-10-08T06:13:32.551Z,34.95
2022-10-08T06:16:35.394Z,34.87
2022-10-08T06:19:37.694Z,34.41
2022-10-08T06:22:39.943Z,34.61
2022-10-08T06:25:42.133Z,34.52
2022-10-08T06:28:46.158Z,34.49
2022-10-08T06:31:48.646Z,34.47
2022-10-08T06:34:50.887Z,34.62
2022-10-08T06:37:53.104Z,34.20
2022-10-08T06:40:57.746Z,34.53
2022-10-08T06:44:00.166Z,34.44
2022-10-08T06:47:02.405Z,34.42
2022-10-08T06:50:05.235Z,34.72
2022-10-08T06:53:09.797Z,34.22
2022-10-08T06:56:15.052Z,34.18
2022-10-08T06:59:17.295Z,34.16
2022-10-08T07:02:19.567Z,34.50
2022-10-08T07:05:21.793Z,34.33
2022-10-08T07:08:24.030Z,34.36
2022-10-08T07:11:27.310Z,34.67
2022-10-08T07:14:29.491Z,34.46
2022-10-08T07:17:31.719Z,34.30
2022-10-08T07:20:33.909Z,34.45
2022-10-08T07:23:36.170Z,34.28
2022-10-08T07:26:38.493Z,34.33
2022-10-08T07:29:40.825Z,34.39
2022-10-08T07:32:42.999Z,34.12
2022-10-08T07:35:45.177Z,34.35
2022-10-08T07:38:48.271Z,34.47
2022-10-08T07:41:50.628Z,34.42
2022-10-08T07:44:52.832Z,34.47
2022-10-08T07:47:55.028Z,34.23
2022-10-08T07:51:15.751Z,34.41
2022-10-08T07:54:19.543Z,34.38
2022-10-08T07:57:21.755Z,34.08
2022-10-08T08:00:26.134Z,34.43
2022-10-08T08:03:29.062Z,34.36
2022-10-08T08:06:33.531Z,34.12
2022-10-08T08:09:35.781Z,34.08
2022-10-08T08:12:37.999Z,34.28
2022-10-08T08:15:40.323Z,34.34
2022-10-08T08:18:45.458Z,34.52
2022-10-08T08:21:47.670Z,34.66
2022-10-08T08:24:49.885Z,34.48
2022-10-08T08:27:52.080Z,34.60
2022-10-08T08:30:54.879Z,34.58
2022-10-08T08:34:02.899Z,34.76
2022-10-08T08:37:05.164Z,34.81
2022-10-08T08:40:08.073Z,35.10
2022-10-08T08:43:10.726Z,34.96
2022-10-08T08:46:17.220Z,35.16
2022-10-08T08:49:34.794Z,35.17
2022-10-08T08:52:42.279Z,35.07
2022-10-08T08:55:50.398Z,35.26
2022-10-08T08:59:12.612Z,35.22
2022-10-08T09:02:31.225Z,35.44
2022-10-08T09:05:40.627Z,35.37
2022-10-08T09:08:50.067Z,35.49
2022-10-08T09:11:52.449Z,35.65
2022-10-08T09:14:58.145Z,35.31
2022-10-08T09:18:03.787Z,35.52
2022-10-08T09:21:06.041Z,35.49
2022-10-08T09:24:09.779Z,35.49
2022-10-08T09:27:14.926Z,35.84
2022-10-08T09:30:42.217Z,35.61
2022-10-08T09:33:46.483Z,35.79
2022-10-08T09:36:48.612Z,35.73
2022-10-08T09:40:12.557Z,35.61
2022-10-08T09:43:17.889Z,35.65
2022-10-08T09:46:31.962Z,35.77
2022-10-08T09:49:36.009Z,35.38
2022-10-08T09:52:41.341Z,35.83
2022-10-08T09:55:52.306Z,35.93
2022-10-08T09:59:00.915Z,35.77
2022-10-08T10:02:07.787Z,35.66
2022-10-08T10:05:25.760Z,35.57
2022-10-08T10:08:46.414Z,35.88
2022-10-08T10:11:54.411Z,35.99
2022-10-08T10:15:01.482Z,35.91
2022-10-08T10:18:12.674Z,35.64
2022-10-08T10:21:20.271Z,35.83
2022-10-08T10:24:27.888Z,35.99
2022-10-08T10:27:38.710Z,35.78
2022-10-08T10:31:06.893Z,35.72
2022-10-08T10:34:21.551Z,35.99
2022-10-08T10:37:46.997Z,35.73
2022-10-08T10:41:02.332Z,35.95
2022-10-08T10:44:10.238Z,36.02
2022-10-08T10:47:13.268Z,35.80
2022-10-08T10:50:17.206Z,35.64
2022-10-08T10:53:32.399Z,35.81
2022-10-08T10:56:42.422Z,35.82
2022-10-08T10:59:48.179Z,35.85
2022-10-08T11:03:06.616Z,36.05
2022-10-08T11:06:14.889Z,35.96
2022-10-08T11:10:09.454Z,36.05
2022-10-08T11:13:23.734Z,35.87
2022-10-08T11:16:40.384Z,35.89
2022-10-08T11:19:53.289Z,35.91
2022-10-08T11:23:26.626Z,35.95
2022-10-08T11:26:59.371Z,36.00
2022-10-08T11:30:14.996Z,35.99
2022-10-08T11:33:18.052Z,35.88
2022-10-08T11:36:35.673Z,35.77
2022-10-08T11:40:07.734Z,36.13
2022-10-08T11:43:22.252Z,36.08
2022-10-08T11:46:31.178Z,36.06
2022-10-08T11:49:33.414Z,35.81
2022-10-08T11:52:35.624Z,35.99
2022-10-08T11:55:39.519Z,35.87
2022-10-08T11:58:41.842Z,35.97
2022-10-08T12:01:56.757Z,36.06
2022-10-08T12:05:16.286Z,35.94
2022-10-08T12:08:50.810Z,35.80
2022-10-08T12:11:54.308Z,36.09
2022-10-08T12:14:56.538Z,36.07
2022-10-08T12:18:01.257Z,35.95
2022-10-08T12:21:15.915Z,36.12
2022-10-08T12:24:49.651Z,35.90
2022-10-08T12:27:52.703Z,36.05
2022-10-08T12:30:57.263Z,35.81
2022-10-08T12:34:03.146Z,36.04
2022-10-08T12:37:19.313Z,35.86
2022-10-08T12:40:24.334Z,35.84
2022-10-08T12:43:54.505Z,35.84
2022-10-08T12:47:15.324Z,35.91
2022-10-08T12:50:55.802Z,35.92
2022-10-08T12:53:58.575Z,36.05
2022-10-08T12:57:08.892Z,36.04
2022-10-08T13:00:20.017Z,36.11
2022-10-08T13:03:22.765Z,36.09
2022-10-08T13:06:33.177Z,35.90
2022-10-08T13:09:36.451Z,36.11
2022-10-08T13:12:38.682Z,35.96
2022-10-08T13:15:40.973Z,35.89
2022-10-08T13:18:54.896Z,35.74
2022-10-08T13:22:05.082Z,35.90
2022-10-08T13:25:41.535Z,35.84
2022-10-08T13:28:59.929Z,35.98
2022-10-08T13:32:04.496Z,35.93
2022-10-08T13:35:21.869Z,35.98
2022-10-08T13:38:33.957Z,35.79
2022-10-08T13:41:36.403Z,36.10
2022-10-08T13:44:40.524Z,35.78
2022-10-08T13:47:42.741Z,36.06
2022-10-08T13:50:46.775Z,35.91
2022-10-08T13:53:51.590Z,35.88
2022-10-08T13:56:56.423Z,35.81
2022-10-08T13:59:58.668Z,35.86
2022-10-08T14:03:01.450Z,35.78
2022-10-08T14:06:03.828Z,36.29
2022-10-08T14:09:09.673Z,35.91
2022-10-08T14:12:11.973Z,35.81
2022-10-08T14:15:15.417Z,35.87
2022-10-08T14:18:17.581Z,36.15
2022-10-08T14:21:19.865Z,35.89
2022-10-08T14:24:22.345Z,36.00
2022-10-08T14:27:24.548Z,35.96
2022-10-08T14:30:27.831Z,35.76
2022-10-08T14:33:30.031Z,35.82
2022-10-08T14:36:38.440Z,36.13
2022-10-08T14:39:40.716Z,36.00
2022-10-08T14:42:42.885Z,36.07
2022-10-08T14:45:45.146Z,36.14
2022-10-08T14:48:47.349Z,35.81
2022-10-08T14:51:49.646Z,36.03
2022-10-08T14:54:51.824Z,36.02
2022-10-08T14:57:53.970Z,35.97
2022-10-08T15:00:57.367Z,35.87
2022-10-08T15:03:59.674Z,35.81
2022-10-08T15:07:01.920Z,36.02
2022-10-08T15:10:05.494Z,36.25
2022-10-08T15:13:07.897Z,36.12
2022-10-08T15:16:12.133Z,36.01
2022-10-08T15:19:14.393Z,35.88
2022-10-08T15:22:16.593Z,36.05
2022-10-08T15:25:19.053Z,36.23
2022-10-08T15:28:21.246Z,36.29
2022-10-08T15:31:28.009Z,35.93
2022-10-08T15:34:30.366Z,36.02
2022-10-08T15:37:32.502Z,36.17
2022-10-08T15:40:34.685Z,36.08
2022-10-08T15:43:37.184Z,36.05
2022-10-08T15:46:39.838Z,36.21
2022-10-08T15:49:43.755Z,36.35
2022-10-08T15:52:46.686Z,36.22
2022-10-08T15:55:58.228Z,36.28
2022-10-08T15:59:01.529Z,36.30
2022-10-08T16:02:05.043Z,36.28
2022-10-08T16:05:07.784Z,36.26
2022-10-08T16:08:10.094Z,36.34
2022-10-08T16:11:19.177Z,36.45
2022-10-08T16:14:24.801Z,36.44
2022-10-08T16:17:27.033Z,36.33
2022-10-08T16:20:29.217Z,36.05
2022-10-08T16:23:37.502Z,36.05
2022-10-08T16:26:40.297Z,36.38
2022-10-08T16:34:00.888Z,36.16
2022-10-08T16:37:04.888Z,36.31
2022-10-08T16:40:07.760Z,36.46
2022-10-08T16:43:10.072Z,36.30
2022-10-08T16:46:18.841Z,36.43
2022-10-08T16:49:25.334Z,36.20
2022-10-08T16:52:28.632Z,36.37
2022-10-08T16:55:30.845Z,36.42
2022-10-08T16:58:33.108Z,36.32
2022-10-08T17:01:36.029Z,36.45
2022-10-08T17:04:39.889Z,36.06
2022-10-08T17:07:42.085Z,36.42
2022-10-08T17:10:44.271Z,36.41
2022-10-08T17:13:55.856Z,36.34
2022-10-08T17:16:58.050Z,36.27
2022-10-08T17:20:00.308Z,36.31
2022-10-08T17:23:02.521Z,36.26
2022-10-08T17:26:12.127Z,36.30
2022-10-08T17:29:14.457Z,36.14
2022-10-08T17:32:16.674Z,36.18
2022-10-08T17:35:18.835Z,36.08
2022-10-08T17:38:21.041Z,36.25
2022-10-08T17:41:28.115Z,36.00
2022-10-08T17:44:30.292Z,36.32
2022-10-08T17:47:32.541Z,36.32
2022-10-08T17:50:36.326Z,36.25
2022-10-08T17:53:38.973Z,36.08
2022-10-08T17:56:41.296Z,36.00
2022-10-08T17:59:43.761Z,36.39
2022-10-08T18:02:46.648Z,36.37
2022-10-08T18:05:59.159Z,36.17
2022-10-08T18:09:07.325Z,36.27
2022-10-08T18:12:10.019Z,36.04
2022-10-08T18:15:12.253Z,36.25
2022-10-08T18:18:14.960Z,36.18
2022-10-08T18:21:18.743Z,36.25
2022-10-08T18:24:21.086Z,36.32
2022-10-08T18:27:23.256Z,36.12
2022-10-08T18:30:25.580Z,36.30
2022-10-08T18:33:31.186Z,36.20
2022-10-08T18:36:36.825Z,36.20
2022-10-08T18:39:39.094Z,36.27
2022-10-08T18:42:41.314Z,36.20
2022-10-08T18:45:43.545Z,36.08
2022-10-08T18:48:46.635Z,35.99
2022-10-08T18:51:49.799Z,36.20
2022-10-08T18:54:51.985Z,36.07
2022-10-08T18:57:54.432Z,36.24
2022-10-08T19:00:57.408Z,36.01
2022-10-08T19:04:01.485Z,36.32
2022-10-08T19:07:03.680Z,36.20
2022-10-08T19:10:06.274Z,36.03
2022-10-08T19:13:08.525Z,36.31
2022-10-08T19:16:15.374Z,36.22
2022-10-08T19:19:20.690Z,36.30
2022-10-08T19:22:22.917Z,36.35
2022-10-08T19:25:26.764Z,36.16
2022-10-08T19:28:29.061Z,36.42
2022-10-08T19:31:33.876Z,36.20
2022-10-08T19:34:36.383Z,36.33
2022-10-08T19:37:38.682Z,36.27
2022-10-08T19:40:40.968Z,36.14
2022-10-08T19:43:44.182Z,36.30
2022-10-08T19:46:47.358Z,36.04
2022-10-08T19:49:49.633Z,35.87
2022-10-08T19:52:52.071Z,36.42
2022-10-08T19:55:54.352Z,36.07
2022-10-08T19:58:57.161Z,36.02
2022-10-08T20:01:59.568Z,36.36
2022-10-08T20:05:02.971Z,36.02
2022-10-08T20:08:05.230Z,36.08
2022-10-08T20:11:10.431Z,36.16
2022-10-08T20:14:14.287Z,36.28
2022-10-08T20:17:17.103Z,36.52
2022-10-08T20:20:32.397Z,36.03
2022-10-08T20:23:36.837Z,35.98
2022-10-08T20:26:41.010Z,36.27
2022-10-08T20:29:43.166Z,36.13
2022-10-08T20:32:45.599Z,36.13
2022-10-08T20:35:47.969Z,36.18
2022-10-08T20:38:50.774Z,36.15
2022-10-08T20:41:53.755Z,36.09
2022-10-08T20:44:55.958Z,36.04
2022-10-08T20:47:58.323Z,36.11
2022-10-08T20:51:20.155Z,36.07
2022-10-08T20:54:22.466Z,36.31
2022-10-08T20:57:24.661Z,36.18
2022-10-08T21:00:26.911Z,35.92
2022-10-08T21:03:29.791Z,36.05
2022-10-08T21:06:41.886Z,36.18
2022-10-08T21:09:44.049Z,36.29
2022-10-08T21:12:46.555Z,36.23
2022-10-08T21:15:49.095Z,35.99
2022-10-08T21:18:53.758Z,36.25
2022-10-08T21:21:56.127Z,35.90
2022-10-08T21:24:58.323Z,36.04
2022-10-08T21:28:00.559Z,36.17
2022-10-08T21:31:04.238Z,35.93
2022-10-08T21:34:07.392Z,36.14
2022-10-08T21:37:13.669Z,35.95
2022-10-08T21:40:16.466Z,36.25
2022-10-08T21:43:18.836Z,36.04
2022-10-08T21:46:24.187Z,36.12
2022-10-08T21:49:26.562Z,36.05
2022-10-08T21:52:28.734Z,36.35
2022-10-08T21:55:30.887Z,35.94
2022-10-08T21:58:38.892Z,36.04
2022-10-08T22:01:49.309Z,36.22
2022-10-08T22:04:51.556Z,36.09
2022-10-08T22:07:53.755Z,36.13
2022-10-08T22:10:56.589Z,35.96
2022-10-08T22:13:58.811Z,36.15
2022-10-08T22:17:00.972Z,35.82
2022-10-08T22:20:03.495Z,35.99
2022-10-08T22:23:05.717Z,36.00
2022-10-08T22:26:12.011Z,35.99
2022-10-08T22:29:15.040Z,36.08
2022-10-08T22:32:17.251Z,36.02
2022-10-08T22:35:19.406Z,35.87
2022-10-08T22:38:21.597Z,36.26
2022-10-08T22:41:26.775Z,35.93
2022-10-08T22:44:29.543Z,36.45
2022-10-08T22:47:31.825Z,36.11
2022-10-08T22:50:35.929Z,36.32
2022-10-08T22:53:38.176Z,36.10
2022-10-08T22:56:40.550Z,35.90
2022-10-08T22:59:42.758Z,36.08
2022-10-08T23:02:44.975Z,36.18
2022-10-08T23:05:47.220Z,36.14
2022-10-08T23:08:56.844Z,36.00
2022-10-08T23:11:59.031Z,36.10
2022-10-08T23:15:01.214Z,36.25
2022-10-08T23:18:03.442Z,36.05
2022-10-08T23:21:12.245Z,35.98
2022-10-08T23:24:14.638Z,35.98
2022-10-08T23:27:16.914Z,35.96
2022-10-08T23:30:41.684Z,36.17
2022-10-08T23:33:44.661Z,36.23
2022-10-08T23:36:46.922Z,35.96
2022-10-08T23:39:49.080Z,36.14
2022-10-08T23:42:52.369Z,36.03
2022-10-08T23:45:55.899Z,36.30
2022-10-08T23:48:59.113Z,36.06
2022-10-08T23:52:01.326Z,36.25
2022-10-08T23:55:03.659Z,36.20
2022-10-08T23:58:05.833Z,36.14
